»·PEaware :: N757AF KSLC-KDEN

N757AF :: KSLC-KDEN

FLIGHT INFORMATION

Flight Status: Arrived
Operator: Privately registered:
United States
More flights under this callsign
Pilot: Tanner C. (11250)
Aircraft: BOEING 757-200
(B752)
More flights by this aircraft type
Origin: KSLC Salt Lake City Intl
United States
Destination: KDEN Denver Intl
United States
More flights between these airports :: More routes between these airports
Route: +NSIGN4 CHE FRNCH3
File this flight plan on PilotEdge
Remarks:
Altitude:
(Current/Filed)
33,000ft
Speed:
(Current/Filed)
500kts
Departed: 08-Jan-17 09:57 PM
Arrived: 08-Jan-17 10:58 PM
Distance/Time
Traveled:
337nm/1:01
Distance/Time
To Go:
Arrived

Flight Plot

Page will automatically refresh every two minutes.


Map Options




Map Legend


Flown Route
Filed Route
Departure Airport
Arrival Airport
Navaid (VOR, NDB)
Fix

Horizontal Profiles

Position Reports

Time Latitude Longitude Heading Altitude Ground
Speed
08-Jan-17 21:33 40.779256 -111.958540 87 4238ft 0kts
08-Jan-17 21:34 40.779256 -111.958540 87 4238ft 0kts
08-Jan-17 21:35 40.779256 -111.958540 87 4238ft 0kts
08-Jan-17 21:36 40.779256 -111.958540 87 4238ft 0kts
08-Jan-17 21:37 40.779256 -111.958540 87 4238ft 0kts
08-Jan-17 21:38 40.779256 -111.958540 87 4238ft 0kts
08-Jan-17 21:39 40.779256 -111.958540 87 4238ft 0kts
08-Jan-17 21:40 40.779256 -111.958540 87 4238ft 0kts
08-Jan-17 21:41 40.779256 -111.958540 87 4238ft 0kts
08-Jan-17 21:42 40.779256 -111.958540 87 4238ft 0kts
08-Jan-17 21:43 40.779256 -111.958540 87 4238ft 0kts
08-Jan-17 21:44 40.779256 -111.958540 87 4238ft 0kts
08-Jan-17 21:45 40.779256 -111.958540 87 4238ft 0kts
08-Jan-17 21:46 40.779256 -111.958540 87 4238ft 0kts
08-Jan-17 21:47 40.779256 -111.958540 87 4238ft 0kts
08-Jan-17 21:48 40.779256 -111.958540 87 4238ft 0kts
08-Jan-17 21:49 40.778649 -111.958303 256 4238ft 2kts
08-Jan-17 21:50 40.778627 -111.959554 269 4238ft 0kts
08-Jan-17 21:51 40.778606 -111.959994 255 4238ft 7kts
08-Jan-17 21:52 40.774917 -111.960685 183 4238ft 18kts
08-Jan-17 21:53 40.773019 -111.960560 197 4238ft 0kts
08-Jan-17 21:54 40.773019 -111.960560 197 4238ft 0kts
08-Jan-17 21:55 40.773015 -111.960561 198 4238ft 0kts
08-Jan-17 21:56 40.774259 -111.962064 0 4238ft 32kts
08-Jan-17 21:57 40.813964 -111.962762 355 5281ft 201kts
08-Jan-17 21:58 40.871340 -111.970137 349 7233ft 247kts
08-Jan-17 21:59 40.943744 -111.980941 348 9395ft 288kts
08-Jan-17 22:00 41.020819 -111.997768 341 11796ft 314kts
08-Jan-17 22:01 41.104164 -111.982733 36 14568ft 356kts
08-Jan-17 22:03 41.121032 -111.782300 136 18513ft 345kts
08-Jan-17 22:04 41.053027 -111.717023 159 20500ft 335kts
08-Jan-17 22:05 40.983570 -111.662175 160 22215ft 348kts
08-Jan-17 22:06 40.917954 -111.571262 114 23871ft 405kts
08-Jan-17 22:07 40.909781 -111.446389 98 24840ft 437kts
08-Jan-17 22:08 40.895702 -111.292293 103 25857ft 463kts
08-Jan-17 22:09 40.876737 -111.131988 103 26883ft 480kts
08-Jan-17 22:10 40.859672 -110.990662 101 28065ft 491kts
08-Jan-17 22:11 40.846795 -110.884855 101 28895ft 498kts
08-Jan-17 22:12 40.840401 -110.831273 101 29284ft 501kts
08-Jan-17 22:13 40.831648 -110.767283 102 29720ft 504kts
08-Jan-17 22:14 40.822976 -110.702233 102 30149ft 508kts
08-Jan-17 22:15 40.810149 -110.609047 102 30726ft 513kts
08-Jan-17 22:16 40.790773 -110.442493 100 31726ft 521kts
08-Jan-17 22:17 40.768113 -110.262412 100 32721ft 530kts
08-Jan-17 22:18 40.744751 -110.076982 100 33175ft 540kts
08-Jan-17 22:19 40.731158 -109.900131 95 33217ft 542kts
08-Jan-17 22:20 40.722758 -109.772941 96 33215ft 554kts
08-Jan-17 22:21 40.710433 -109.600895 96 33213ft 561kts
08-Jan-17 22:22 40.695782 -109.409780 96 33213ft 562kts
08-Jan-17 22:23 40.680618 -109.213388 97 33213ft 558kts
08-Jan-17 22:24 40.665151 -109.019823 95 33218ft 559kts
08-Jan-17 22:25 40.650265 -108.838255 95 33197ft 559kts
08-Jan-17 22:26 40.635664 -108.655170 96 33201ft 560kts
08-Jan-17 22:27 40.620149 -108.463620 96 33142ft 566kts
08-Jan-17 22:28 40.605343 -108.275603 97 33140ft 566kts
08-Jan-17 22:29 40.588536 -108.079107 97 33133ft 565kts
08-Jan-17 22:30 40.571636 -107.887311 97 33123ft 566kts
08-Jan-17 22:31 40.555559 -107.700219 98 32929ft 566kts
08-Jan-17 22:32 40.537830 -107.511818 98 31949ft 557kts
08-Jan-17 22:33 40.520009 -107.323259 98 30816ft 546kts
08-Jan-17 22:34 40.508836 -107.135692 95 29690ft 536kts
08-Jan-17 22:35 40.499298 -106.956922 94 28125ft 532kts
08-Jan-17 22:36 40.490851 -106.790164 96 26324ft 509kts
08-Jan-17 22:37 40.481631 -106.620064 95 27201ft 513kts
08-Jan-17 22:38 40.471238 -106.440373 95 27205ft 525kts
08-Jan-17 22:39 40.460245 -106.259044 95 27206ft 526kts
08-Jan-17 22:40 40.448957 -106.079626 95 25415ft 515kts
08-Jan-17 22:41 40.434456 -105.935688 104 23469ft 491kts
08-Jan-17 22:42 40.414504 -105.804450 105 21562ft 473kts
08-Jan-17 22:43 40.394238 -105.675513 105 19621ft 455kts
08-Jan-17 22:44 40.372782 -105.541308 106 18141ft 422kts
08-Jan-17 22:45 40.338298 -105.412604 134 17038ft 378kts
08-Jan-17 22:46 40.274597 -105.308896 136 16594ft 372kts
08-Jan-17 22:47 40.212148 -105.210805 136 15634ft 364kts
08-Jan-17 22:48 40.150706 -105.115017 136 14736ft 342kts
08-Jan-17 22:49 40.094646 -105.027711 135 14096ft 326kts
08-Jan-17 22:50 40.049478 -104.927805 118 12988ft 330kts
08-Jan-17 22:51 40.029618 -104.826072 69 11393ft 301kts
08-Jan-17 22:52 40.060089 -104.740758 45 9623ft 270kts
08-Jan-17 22:53 40.053278 -104.673914 181 8058ft 166kts
08-Jan-17 22:54 40.014073 -104.690896 203 8030ft 150kts
08-Jan-17 22:55 39.974287 -104.694469 187 6997ft 131kts
08-Jan-17 22:56 39.939599 -104.695405 183 6214ft 134kts
08-Jan-17 22:57 39.902284 -104.695906 183 5588ft 129kts
08-Jan-17 22:58 39.878025 -104.696015 166 5443ft 27kts

Navigation Log

Ident Type
1. KSLC Airport
2. WOMEX Fix
3. NSIGN Fix
4. COKKE Fix
5. CHEDO Fix
6. HERTS Fix
7. PERTY Fix
8. CHE Navaid
9. KDEN Airport